Seagoville, TX (75159)

1:33 AM CST on February 11, 2016 (GMT -0600)
Mesquite Texas | | Change Station
CLOSE
Current Station
Personal Weather Station
Location: Balch Springs, TX
Elevation: 522 ft
Nearby Weather Stations
Active Advisory: Flood Warning

Elev 522 ft 32.71 °N, 96.60 °W | Updated 19 seconds ago

Clear
Clear
53.2 °F
Feels Like 53.2 °F
N
0.0
Wind Variable Wind from WSW
Gusts 0.0 mph

Today
High -- | Low -- °F
--% Chance of Precip.
Yesterday
High -- | Low -- °F
Precip. -- in
Pressure 30.04 in
Visibility 10.0 miles
Clouds Clear
Dew Point 37 °F
Humidity 54%
Rainfall 0.00 in
Snow Depth Not available.
7:13 AM 6:08 PM
Waxing Crescent, 10% visible
METAR KHQZ 110715Z AUTO 19009KT 10SM CLR 10/02 A3004 RMK AO1 T01040016
Pressure 30.04 in
Visibility 10.0 miles
Clouds Clear
Dew Point 37 °F
Humidity 54%
Rainfall 0.00 in
Snow Depth Not available.
7:13 AM 6:08 PM
Waxing Crescent, 10% visible
METAR KHQZ 110715Z AUTO 19009KT 10SM CLR 10/02 A3004 RMK AO1 T01040016

10-Day Weather Forecast

Almanac

Astronomy

Feb. 11, 2016 Rise Set
Actual Time
Civil Twilight
Nautical Twilight
Astronomical Twilight
Moon
Length of Visible Light
Length of Day
Tomorrow will be .
, % of the Moon is Illuminated

Today's Extremes

State Highs State Lows

Community

WunderPhotos

Upload Photos

1,892,030 photos uploaded!

WunderBlog® & News

Nearby

Air Quality

  Air Quality AQ Index Pollutant
Not available.

Snow Depth

Station Depth Elevation

Earthquake Activity

City Distance Mag. Time & Date
Minimum magnitude displayed is 2.5.

Coastal Water Temperatures

Place Temperature

Stations

Nearby Weather Stations

Station Location Temp. Windchill Dew Point Humidity Wind Precip. Elev Updated Type
                   

Watches & Warnings

Flood Warning
Issued: 6:38 PM CST Feb. 10, 2016 – National Weather Service

The Flood Warning continues for
the Elm Fork Trinity River near Carrollton.
* At 0615 PM Wednesday the stage was 8.37 feet.
* Flood stage is 8 feet.
* Minor flooding is occurring and minor flooding is forecast.
* Forecast... the river will remain near 8.3 feet for the next few
days.


Lat... Lon 3300 9700 3287 9699 3287 9687 3300 9688